sensor_id;sensor_type;location;lat;lon;timestamp;P1;durP1;ratioP1;P2;durP2;ratioP2
44480;SDS011;30184;42.018;23.670;2022-12-18T00:00:27;41.65;;;20.95;;
44480;SDS011;30184;42.018;23.670;2022-12-18T00:02:56;37.50;;;20.42;;
44480;SDS011;30184;42.018;23.670;2022-12-18T00:05:25;43.72;;;19.73;;
44480;SDS011;30184;42.018;23.670;2022-12-18T00:07:56;38.40;;;17.55;;
44480;SDS011;30184;42.018;23.670;2022-12-18T00:10:25;38.65;;;19.20;;
44480;SDS011;30184;42.018;23.670;2022-12-18T00:12:55;78.75;;;36.60;;
44480;SDS011;30184;42.018;23.670;2022-12-18T00:15:24;186.88;;;67.22;;
44480;SDS011;30184;42.018;23.670;2022-12-18T00:17:54;86.30;;;35.83;;
44480;SDS011;30184;42.018;23.670;2022-12-18T00:20:23;141.27;;;51.28;;
44480;SDS011;30184;42.018;23.670;2022-12-18T00:22:53;135.10;;;52.92;;
44480;SDS011;30184;42.018;23.670;2022-12-18T00:25:24;101.38;;;39.33;;
44480;SDS011;30184;42.018;23.670;2022-12-18T00:27:53;138.30;;;54.95;;
44480;SDS011;30184;42.018;23.670;2022-12-18T00:30:22;123.35;;;50.28;;
44480;SDS011;30184;42.018;23.670;2022-12-18T00:32:51;123.10;;;56.05;;
44480;SDS011;30184;42.018;23.670;2022-12-18T00:35:20;89.40;;;44.90;;
44480;SDS011;30184;42.018;23.670;2022-12-18T00:37:50;61.15;;;30.80;;
44480;SDS011;30184;42.018;23.670;2022-12-18T00:40:19;77.72;;;33.63;;
44480;SDS011;30184;42.018;23.670;2022-12-18T00:42:49;56.05;;;29.02;;
44480;SDS011;30184;42.018;23.670;2022-12-18T00:45:23;57.70;;;28.80;;
44480;SDS011;30184;42.018;23.670;2022-12-18T00:47:55;61.67;;;35.60;;
44480;SDS011;30184;42.018;23.670;2022-12-18T00:50:25;60.00;;;33.60;;
44480;SDS011;30184;42.018;23.670;2022-12-18T00:52:54;96.03;;;49.08;;
44480;SDS011;30184;42.018;23.670;2022-12-18T00:55:23;56.78;;;30.73;;
44480;SDS011;30184;42.018;23.670;2022-12-18T00:57:54;76.80;;;35.97;;
44480;SDS011;30184;42.018;23.670;2022-12-18T01:00:24;58.70;;;29.48;;
44480;SDS011;30184;42.018;23.670;2022-12-18T01:02:53;55.53;;;27.13;;
44480;SDS011;30184;42.018;23.670;2022-12-18T01:05:24;33.95;;;17.98;;
44480;SDS011;30184;42.018;23.670;2022-12-18T01:07:54;45.75;;;22.60;;
44480;SDS011;30184;42.018;23.670;2022-12-18T01:10:24;42.53;;;21.05;;
44480;SDS011;30184;42.018;23.670;2022-12-18T01:12:58;33.15;;;18.38;;
44480;SDS011;30184;42.018;23.670;2022-12-18T01:15:27;22.73;;;9.88;;
44480;SDS011;30184;42.018;23.670;2022-12-18T01:17:56;15.63;;;10.07;;
44480;SDS011;30184;42.018;23.670;2022-12-18T01:20:26;27.33;;;10.43;;
44480;SDS011;30184;42.018;23.670;2022-12-18T01:22:55;34.67;;;17.52;;
44480;SDS011;30184;42.018;23.670;2022-12-18T01:25:26;39.15;;;17.05;;
44480;SDS011;30184;42.018;23.670;2022-12-18T01:27:55;40.03;;;17.85;;
44480;SDS011;30184;42.018;23.670;2022-12-18T01:30:26;39.22;;;17.90;;
44480;SDS011;30184;42.018;23.670;2022-12-18T01:32:55;27.30;;;11.95;;
44480;SDS011;30184;42.018;23.670;2022-12-18T01:35:24;40.53;;;17.67;;
44480;SDS011;30184;42.018;23.670;2022-12-18T01:37:54;39.22;;;20.15;;
44480;SDS011;30184;42.018;23.670;2022-12-18T01:40:23;40.90;;;17.13;;
44480;SDS011;30184;42.018;23.670;2022-12-18T01:42:53;38.22;;;19.17;;
44480;SDS011;30184;42.018;23.670;2022-12-18T01:45:23;32.90;;;17.10;;
44480;SDS011;30184;42.018;23.670;2022-12-18T01:47:57;39.88;;;15.90;;
44480;SDS011;30184;42.018;23.670;2022-12-18T01:50:29;24.83;;;13.98;;
44480;SDS011;30184;42.018;23.670;2022-12-18T01:53:02;29.25;;;17.38;;
44480;SDS011;30184;42.018;23.670;2022-12-18T01:55:36;36.40;;;20.45;;
44480;SDS011;30184;42.018;23.670;2022-12-18T01:58:08;41.28;;;20.17;;
44480;SDS011;30184;42.018;23.670;2022-12-18T02:00:39;35.65;;;18.40;;
44480;SDS011;30184;42.018;23.670;2022-12-18T02:03:09;37.78;;;15.35;;
44480;SDS011;30184;42.018;23.670;2022-12-18T02:05:40;34.50;;;14.50;;
44480;SDS011;30184;42.018;23.670;2022-12-18T02:08:16;31.02;;;13.45;;
44480;SDS011;30184;42.018;23.670;2022-12-18T02:10:53;23.40;;;13.07;;
44480;SDS011;30184;42.018;23.670;2022-12-18T02:13:34;26.00;;;12.00;;
44480;SDS011;30184;42.018;23.670;2022-12-18T02:16:13;19.15;;;11.05;;
44480;SDS011;30184;42.018;23.670;2022-12-18T02:18:50;23.20;;;14.40;;
44480;SDS011;30184;42.018;23.670;2022-12-18T02:21:27;26.27;;;12.20;;
44480;SDS011;30184;42.018;23.670;2022-12-18T02:24:07;26.83;;;15.27;;
44480;SDS011;30184;42.018;23.670;2022-12-18T02:26:48;23.77;;;13.30;;
44480;SDS011;30184;42.018;23.670;2022-12-18T02:29:22;23.10;;;11.48;;
44480;SDS011;30184;42.018;23.670;2022-12-18T02:31:56;18.65;;;11.18;;
44480;SDS011;30184;42.018;23.670;2022-12-18T02:34:32;20.38;;;11.90;;
44480;SDS011;30184;42.018;23.670;2022-12-18T02:37:09;22.92;;;11.55;;
44480;SDS011;30184;42.018;23.670;2022-12-18T02:39:42;32.60;;;13.23;;
44480;SDS011;30184;42.018;23.670;2022-12-18T02:42:17;26.63;;;11.88;;
44480;SDS011;30184;42.018;23.670;2022-12-18T02:44:48;22.65;;;11.65;;
44480;SDS011;30184;42.018;23.670;2022-12-18T02:47:23;27.88;;;10.55;;
44480;SDS011;30184;42.018;23.670;2022-12-18T02:49:58;24.73;;;10.35;;
44480;SDS011;30184;42.018;23.670;2022-12-18T02:52:35;27.85;;;9.90;;
44480;SDS011;30184;42.018;23.670;2022-12-18T02:55:17;23.00;;;10.32;;
44480;SDS011;30184;42.018;23.670;2022-12-18T02:58:01;23.58;;;11.60;;
44480;SDS011;30184;42.018;23.670;2022-12-18T03:00:38;26.70;;;13.65;;
44480;SDS011;30184;42.018;23.670;2022-12-18T03:03:12;24.60;;;13.13;;
44480;SDS011;30184;42.018;23.670;2022-12-18T03:05:48;36.60;;;17.52;;
44480;SDS011;30184;42.018;23.670;2022-12-18T03:08:22;47.05;;;22.15;;
44480;SDS011;30184;42.018;23.670;2022-12-18T03:10:54;34.97;;;16.33;;
44480;SDS011;30184;42.018;23.670;2022-12-18T03:13:30;25.58;;;12.23;;
44480;SDS011;30184;42.018;23.670;2022-12-18T03:16:05;21.48;;;12.90;;
44480;SDS011;30184;42.018;23.670;2022-12-18T03:18:38;22.30;;;11.93;;
44480;SDS011;30184;42.018;23.670;2022-12-18T03:21:13;27.33;;;14.02;;
44480;SDS011;30184;42.018;23.670;2022-12-18T03:23:47;44.95;;;22.08;;
44480;SDS011;30184;42.018;23.670;2022-12-18T03:26:23;34.83;;;17.27;;
44480;SDS011;30184;42.018;23.670;2022-12-18T03:31:33;23.50;;;11.63;;
44480;SDS011;30184;42.018;23.670;2022-12-18T03:34:06;41.70;;;20.10;;
44480;SDS011;30184;42.018;23.670;2022-12-18T03:36:45;47.83;;;21.00;;
44480;SDS011;30184;42.018;23.670;2022-12-18T03:39:14;53.08;;;26.17;;
44480;SDS011;30184;42.018;23.670;2022-12-18T03:41:52;162.65;;;71.90;;
44480;SDS011;30184;42.018;23.670;2022-12-18T03:44:38;144.57;;;63.25;;
44480;SDS011;30184;42.018;23.670;2022-12-18T03:47:13;182.85;;;84.50;;
44480;SDS011;30184;42.018;23.670;2022-12-18T03:49:46;208.05;;;99.13;;
44480;SDS011;30184;42.018;23.670;2022-12-18T03:52:23;102.05;;;48.20;;
44480;SDS011;30184;42.018;23.670;2022-12-18T03:54:57;31.85;;;15.00;;
44480;SDS011;30184;42.018;23.670;2022-12-18T03:57:29;45.50;;;22.45;;
44480;SDS011;30184;42.018;23.670;2022-12-18T04:00:04;22.48;;;10.30;;
44480;SDS011;30184;42.018;23.670;2022-12-18T04:02:51;28.48;;;14.20;;
44480;SDS011;30184;42.018;23.670;2022-12-18T04:05:30;36.58;;;14.10;;
44480;SDS011;30184;42.018;23.670;2022-12-18T04:08:02;117.30;;;53.92;;
44480;SDS011;30184;42.018;23.670;2022-12-18T04:10:36;123.00;;;55.45;;
44480;SDS011;30184;42.018;23.670;2022-12-18T04:13:05;100.18;;;45.88;;
44480;SDS011;30184;42.018;23.670;2022-12-18T04:15:37;119.80;;;62.60;;
44480;SDS011;30184;42.018;23.670;2022-12-18T04:18:11;44.95;;;24.98;;
44480;SDS011;30184;42.018;23.670;2022-12-18T04:20:42;62.25;;;29.42;;
44480;SDS011;30184;42.018;23.670;2022-12-18T04:23:11;72.45;;;33.42;;
44480;SDS011;30184;42.018;23.670;2022-12-18T04:25:40;70.57;;;33.60;;
44480;SDS011;30184;42.018;23.670;2022-12-18T04:28:17;115.45;;;53.08;;
44480;SDS011;30184;42.018;23.670;2022-12-18T04:30:48;77.97;;;40.58;;
44480;SDS011;30184;42.018;23.670;2022-12-18T04:33:19;67.10;;;34.85;;
44480;SDS011;30184;42.018;23.670;2022-12-18T04:35:48;39.53;;;25.85;;
44480;SDS011;30184;42.018;23.670;2022-12-18T04:38:17;53.53;;;31.60;;
44480;SDS011;30184;42.018;23.670;2022-12-18T04:40:52;84.03;;;43.50;;
44480;SDS011;30184;42.018;23.670;2022-12-18T04:43:25;104.72;;;54.38;;
44480;SDS011;30184;42.018;23.670;2022-12-18T04:46:02;50.17;;;27.52;;
44480;SDS011;30184;42.018;23.670;2022-12-18T04:48:32;45.75;;;24.23;;
44480;SDS011;30184;42.018;23.670;2022-12-18T04:51:02;26.88;;;13.93;;
44480;SDS011;30184;42.018;23.670;2022-12-18T04:53:31;27.30;;;13.00;;
44480;SDS011;30184;42.018;23.670;2022-12-18T04:56:04;29.52;;;13.13;;
44480;SDS011;30184;42.018;23.670;2022-12-18T04:58:34;31.35;;;14.27;;
44480;SDS011;30184;42.018;23.670;2022-12-18T05:01:05;29.02;;;17.33;;
44480;SDS011;30184;42.018;23.670;2022-12-18T05:03:35;100.88;;;49.67;;
44480;SDS011;30184;42.018;23.670;2022-12-18T05:06:05;48.80;;;24.67;;
44480;SDS011;30184;42.018;23.670;2022-12-18T05:08:35;47.05;;;25.48;;
44480;SDS011;30184;42.018;23.670;2022-12-18T05:11:05;39.28;;;20.80;;
44480;SDS011;30184;42.018;23.670;2022-12-18T05:13:36;29.88;;;17.15;;
44480;SDS011;30184;42.018;23.670;2022-12-18T05:16:08;34.80;;;16.80;;
44480;SDS011;30184;42.018;23.670;2022-12-18T05:18:38;30.60;;;15.60;;
44480;SDS011;30184;42.018;23.670;2022-12-18T05:21:07;29.83;;;14.82;;
44480;SDS011;30184;42.018;23.670;2022-12-18T05:23:36;38.92;;;17.83;;
44480;SDS011;30184;42.018;23.670;2022-12-18T05:26:06;46.47;;;22.25;;
44480;SDS011;30184;42.018;23.670;2022-12-18T05:28:35;37.75;;;20.92;;
44480;SDS011;30184;42.018;23.670;2022-12-18T05:31:04;46.47;;;26.50;;
44480;SDS011;30184;42.018;23.670;2022-12-18T05:33:35;38.47;;;19.73;;
44480;SDS011;30184;42.018;23.670;2022-12-18T05:36:05;37.33;;;20.08;;
44480;SDS011;30184;42.018;23.670;2022-12-18T05:38:36;94.90;;;42.38;;
44480;SDS011;30184;42.018;23.670;2022-12-18T05:41:07;133.10;;;57.75;;
44480;SDS011;30184;42.018;23.670;2022-12-18T05:43:37;104.53;;;48.47;;
44480;SDS011;30184;42.018;23.670;2022-12-18T05:46:09;77.93;;;37.30;;
44480;SDS011;30184;42.018;23.670;2022-12-18T05:48:42;61.90;;;32.17;;
44480;SDS011;30184;42.018;23.670;2022-12-18T05:51:13;89.00;;;43.25;;
44480;SDS011;30184;42.018;23.670;2022-12-18T05:53:43;70.63;;;33.15;;
44480;SDS011;30184;42.018;23.670;2022-12-18T05:56:13;112.97;;;51.28;;
44480;SDS011;30184;42.018;23.670;2022-12-18T05:58:44;175.13;;;71.50;;
44480;SDS011;30184;42.018;23.670;2022-12-18T06:01:14;272.23;;;110.47;;
44480;SDS011;30184;42.018;23.670;2022-12-18T06:03:46;96.85;;;44.22;;
44480;SDS011;30184;42.018;23.670;2022-12-18T06:06:15;27.67;;;16.10;;
44480;SDS011;30184;42.018;23.670;2022-12-18T06:08:46;48.38;;;25.00;;
44480;SDS011;30184;42.018;23.670;2022-12-18T06:11:16;42.67;;;23.95;;
44480;SDS011;30184;42.018;23.670;2022-12-18T06:13:46;79.30;;;44.92;;
44480;SDS011;30184;42.018;23.670;2022-12-18T06:16:20;75.13;;;41.88;;
44480;SDS011;30184;42.018;23.670;2022-12-18T06:18:51;74.40;;;44.65;;
44480;SDS011;30184;42.018;23.670;2022-12-18T06:21:20;82.57;;;48.13;;
44480;SDS011;30184;42.018;23.670;2022-12-18T06:23:49;95.57;;;53.75;;
44480;SDS011;30184;42.018;23.670;2022-12-18T06:26:18;90.22;;;46.38;;
44480;SDS011;30184;42.018;23.670;2022-12-18T06:28:50;98.63;;;52.80;;
44480;SDS011;30184;42.018;23.670;2022-12-18T06:31:19;163.23;;;84.88;;
44480;SDS011;30184;42.018;23.670;2022-12-18T06:33:48;134.75;;;70.07;;
44480;SDS011;30184;42.018;23.670;2022-12-18T06:36:19;121.82;;;64.47;;
44480;SDS011;30184;42.018;23.670;2022-12-18T06:38:48;144.00;;;84.03;;
44480;SDS011;30184;42.018;23.670;2022-12-18T06:41:18;138.13;;;76.95;;
44480;SDS011;30184;42.018;23.670;2022-12-18T06:43:48;178.38;;;106.63;;
44480;SDS011;30184;42.018;23.670;2022-12-18T06:46:18;131.18;;;72.45;;
44480;SDS011;30184;42.018;23.670;2022-12-18T06:48:48;156.70;;;89.00;;
44480;SDS011;30184;42.018;23.670;2022-12-18T06:51:20;123.97;;;69.43;;
44480;SDS011;30184;42.018;23.670;2022-12-18T06:53:50;135.95;;;78.03;;
44480;SDS011;30184;42.018;23.670;2022-12-18T06:56:19;117.63;;;63.95;;
44480;SDS011;30184;42.018;23.670;2022-12-18T06:58:48;112.63;;;60.85;;
44480;SDS011;30184;42.018;23.670;2022-12-18T07:01:17;107.25;;;62.63;;
44480;SDS011;30184;42.018;23.670;2022-12-18T07:03:47;112.13;;;62.55;;
44480;SDS011;30184;42.018;23.670;2022-12-18T07:06:22;268.60;;;137.10;;
44480;SDS011;30184;42.018;23.670;2022-12-18T07:08:53;181.45;;;93.75;;
44480;SDS011;30184;42.018;23.670;2022-12-18T07:11:23;159.50;;;82.50;;
44480;SDS011;30184;42.018;23.670;2022-12-18T07:13:52;140.88;;;77.10;;
44480;SDS011;30184;42.018;23.670;2022-12-18T07:16:22;82.90;;;46.92;;
44480;SDS011;30184;42.018;23.670;2022-12-18T07:18:52;150.35;;;81.63;;
44480;SDS011;30184;42.018;23.670;2022-12-18T07:21:23;183.88;;;98.10;;
44480;SDS011;30184;42.018;23.670;2022-12-18T07:23:53;175.07;;;97.78;;
44480;SDS011;30184;42.018;23.670;2022-12-18T07:26:22;175.77;;;98.68;;
44480;SDS011;30184;42.018;23.670;2022-12-18T07:28:54;200.73;;;110.65;;
44480;SDS011;30184;42.018;23.670;2022-12-18T07:31:24;219.32;;;117.65;;
44480;SDS011;30184;42.018;23.670;2022-12-18T07:33:54;208.50;;;116.60;;
44480;SDS011;30184;42.018;23.670;2022-12-18T07:36:24;291.27;;;154.27;;
44480;SDS011;30184;42.018;23.670;2022-12-18T07:38:53;258.05;;;136.20;;
44480;SDS011;30184;42.018;23.670;2022-12-18T07:41:23;247.73;;;132.85;;
44480;SDS011;30184;42.018;23.670;2022-12-18T07:43:52;203.38;;;111.60;;
44480;SDS011;30184;42.018;23.670;2022-12-18T07:46:22;247.70;;;127.88;;
44480;SDS011;30184;42.018;23.670;2022-12-18T07:48:51;285.30;;;145.90;;
44480;SDS011;30184;42.018;23.670;2022-12-18T07:51:20;282.33;;;144.75;;
44480;SDS011;30184;42.018;23.670;2022-12-18T07:53:51;261.02;;;135.77;;
44480;SDS011;30184;42.018;23.670;2022-12-18T07:56:20;132.60;;;78.97;;
44480;SDS011;30184;42.018;23.670;2022-12-18T07:58:53;190.57;;;114.47;;
44480;SDS011;30184;42.018;23.670;2022-12-18T08:01:22;138.63;;;81.72;;
44480;SDS011;30184;42.018;23.670;2022-12-18T08:03:52;149.35;;;90.15;;
44480;SDS011;30184;42.018;23.670;2022-12-18T08:06:27;151.82;;;92.68;;
44480;SDS011;30184;42.018;23.670;2022-12-18T08:09:07;291.55;;;162.55;;
44480;SDS011;30184;42.018;23.670;2022-12-18T08:11:38;329.38;;;182.52;;
44480;SDS011;30184;42.018;23.670;2022-12-18T08:14:08;214.82;;;115.63;;
44480;SDS011;30184;42.018;23.670;2022-12-18T08:16:37;83.72;;;44.80;;
44480;SDS011;30184;42.018;23.670;2022-12-18T08:19:06;104.78;;;50.88;;
44480;SDS011;30184;42.018;23.670;2022-12-18T08:21:35;95.75;;;48.95;;
44480;SDS011;30184;42.018;23.670;2022-12-18T08:24:09;100.57;;;58.17;;
44480;SDS011;30184;42.018;23.670;2022-12-18T08:26:39;183.80;;;87.05;;
44480;SDS011;30184;42.018;23.670;2022-12-18T08:29:08;62.72;;;33.10;;
44480;SDS011;30184;42.018;23.670;2022-12-18T08:31:38;250.70;;;113.30;;
44480;SDS011;30184;42.018;23.670;2022-12-18T08:34:07;230.95;;;95.45;;
44480;SDS011;30184;42.018;23.670;2022-12-18T08:36:37;93.68;;;33.80;;
44480;SDS011;30184;42.018;23.670;2022-12-18T08:39:06;92.63;;;37.13;;
44480;SDS011;30184;42.018;23.670;2022-12-18T08:41:36;99.82;;;46.28;;
44480;SDS011;30184;42.018;23.670;2022-12-18T08:44:06;122.68;;;61.05;;
44480;SDS011;30184;42.018;23.670;2022-12-18T08:46:55;68.13;;;37.95;;
44480;SDS011;30184;42.018;23.670;2022-12-18T08:49:24;65.20;;;41.50;;
44480;SDS011;30184;42.018;23.670;2022-12-18T08:51:53;72.05;;;45.35;;
44480;SDS011;30184;42.018;23.670;2022-12-18T08:54:24;95.10;;;55.03;;
44480;SDS011;30184;42.018;23.670;2022-12-18T08:56:56;94.85;;;51.42;;
44480;SDS011;30184;42.018;23.670;2022-12-18T08:59:25;100.38;;;57.75;;
44480;SDS011;30184;42.018;23.670;2022-12-18T09:01:55;146.38;;;75.65;;
44480;SDS011;30184;42.018;23.670;2022-12-18T09:04:24;78.90;;;41.33;;
44480;SDS011;30184;42.018;23.670;2022-12-18T09:06:54;63.03;;;32.25;;
44480;SDS011;30184;42.018;23.670;2022-12-18T09:09:23;81.82;;;47.10;;
44480;SDS011;30184;42.018;23.670;2022-12-18T09:11:52;68.30;;;38.75;;
44480;SDS011;30184;42.018;23.670;2022-12-18T09:14:22;77.30;;;44.85;;
44480;SDS011;30184;42.018;23.670;2022-12-18T09:16:51;117.57;;;63.03;;
44480;SDS011;30184;42.018;23.670;2022-12-18T09:19:20;106.15;;;59.60;;
44480;SDS011;30184;42.018;23.670;2022-12-18T09:21:49;105.18;;;60.03;;
44480;SDS011;30184;42.018;23.670;2022-12-18T09:24:18;107.20;;;62.80;;
44480;SDS011;30184;42.018;23.670;2022-12-18T09:26:47;115.43;;;66.50;;
44480;SDS011;30184;42.018;23.670;2022-12-18T09:29:18;95.40;;;55.80;;
44480;SDS011;30184;42.018;23.670;2022-12-18T09:31:49;80.25;;;48.97;;
44480;SDS011;30184;42.018;23.670;2022-12-18T09:34:18;73.68;;;41.75;;
44480;SDS011;30184;42.018;23.670;2022-12-18T09:36:50;84.00;;;50.50;;
44480;SDS011;30184;42.018;23.670;2022-12-18T09:39:19;60.67;;;37.13;;
44480;SDS011;30184;42.018;23.670;2022-12-18T09:41:50;74.63;;;41.50;;
44480;SDS011;30184;42.018;23.670;2022-12-18T09:44:25;47.30;;;28.33;;
44480;SDS011;30184;42.018;23.670;2022-12-18T09:47:03;49.72;;;28.58;;
44480;SDS011;30184;42.018;23.670;2022-12-18T09:49:39;28.55;;;18.33;;
44480;SDS011;30184;42.018;23.670;2022-12-18T09:52:15;46.63;;;23.13;;
44480;SDS011;30184;42.018;23.670;2022-12-18T09:54:51;42.75;;;22.48;;
44480;SDS011;30184;42.018;23.670;2022-12-18T09:57:23;51.17;;;26.77;;
44480;SDS011;30184;42.018;23.670;2022-12-18T09:59:54;39.55;;;20.58;;
44480;SDS011;30184;42.018;23.670;2022-12-18T10:02:26;29.23;;;16.27;;
44480;SDS011;30184;42.018;23.670;2022-12-18T10:05:02;26.45;;;16.48;;
44480;SDS011;30184;42.018;23.670;2022-12-18T10:07:37;58.95;;;32.58;;
44480;SDS011;30184;42.018;23.670;2022-12-18T10:10:21;27.67;;;16.38;;
44480;SDS011;30184;42.018;23.670;2022-12-18T10:13:00;44.08;;;24.92;;
44480;SDS011;30184;42.018;23.670;2022-12-18T10:15:36;30.08;;;16.23;;
44480;SDS011;30184;42.018;23.670;2022-12-18T10:18:17;41.83;;;23.42;;
44480;SDS011;30184;42.018;23.670;2022-12-18T10:20:59;36.97;;;22.50;;
44480;SDS011;30184;42.018;23.670;2022-12-18T10:23:37;33.15;;;16.75;;
44480;SDS011;30184;42.018;23.670;2022-12-18T10:26:14;31.35;;;16.65;;
44480;SDS011;30184;42.018;23.670;2022-12-18T10:28:43;32.00;;;19.17;;
44480;SDS011;30184;42.018;23.670;2022-12-18T10:31:14;39.20;;;21.33;;
44480;SDS011;30184;42.018;23.670;2022-12-18T10:33:46;41.88;;;23.27;;
44480;SDS011;30184;42.018;23.670;2022-12-18T10:36:15;32.30;;;18.13;;
44480;SDS011;30184;42.018;23.670;2022-12-18T10:38:44;38.13;;;22.63;;
44480;SDS011;30184;42.018;23.670;2022-12-18T10:41:23;32.28;;;20.95;;
44480;SDS011;30184;42.018;23.670;2022-12-18T10:44:11;30.02;;;17.13;;
44480;SDS011;30184;42.018;23.670;2022-12-18T10:46:44;31.88;;;17.00;;
44480;SDS011;30184;42.018;23.670;2022-12-18T10:49:25;31.38;;;17.08;;
44480;SDS011;30184;42.018;23.670;2022-12-18T10:52:07;32.53;;;17.77;;
44480;SDS011;30184;42.018;23.670;2022-12-18T10:54:46;42.07;;;21.73;;
44480;SDS011;30184;42.018;23.670;2022-12-18T10:57:28;36.70;;;20.90;;
44480;SDS011;30184;42.018;23.670;2022-12-18T11:00:03;39.10;;;22.05;;
44480;SDS011;30184;42.018;23.670;2022-12-18T11:02:49;36.83;;;19.33;;
44480;SDS011;30184;42.018;23.670;2022-12-18T11:05:25;69.32;;;32.78;;
44480;SDS011;30184;42.018;23.670;2022-12-18T11:07:57;65.75;;;35.45;;
44480;SDS011;30184;42.018;23.670;2022-12-18T11:10:28;52.92;;;30.08;;
44480;SDS011;30184;42.018;23.670;2022-12-18T11:13:16;53.92;;;28.20;;
44480;SDS011;30184;42.018;23.670;2022-12-18T11:15:47;43.57;;;25.17;;
44480;SDS011;30184;42.018;23.670;2022-12-18T11:18:17;48.45;;;25.60;;
44480;SDS011;30184;42.018;23.670;2022-12-18T11:20:52;47.33;;;25.30;;
44480;SDS011;30184;42.018;23.670;2022-12-18T11:23:25;50.55;;;28.08;;
44480;SDS011;30184;42.018;23.670;2022-12-18T11:25:56;45.85;;;25.08;;
44480;SDS011;30184;42.018;23.670;2022-12-18T11:28:29;54.85;;;26.77;;
44480;SDS011;30184;42.018;23.670;2022-12-18T11:31:12;51.33;;;24.50;;
44480;SDS011;30184;42.018;23.670;2022-12-18T11:33:59;45.30;;;25.42;;
44480;SDS011;30184;42.018;23.670;2022-12-18T11:36:54;62.00;;;33.63;;
44480;SDS011;30184;42.018;23.670;2022-12-18T11:39:25;69.68;;;36.80;;
44480;SDS011;30184;42.018;23.670;2022-12-18T11:42:01;77.85;;;35.95;;
44480;SDS011;30184;42.018;23.670;2022-12-18T11:44:41;58.03;;;32.10;;
44480;SDS011;30184;42.018;23.670;2022-12-18T11:49:50;47.72;;;25.88;;
44480;SDS011;30184;42.018;23.670;2022-12-18T11:52:22;42.25;;;23.52;;
44480;SDS011;30184;42.018;23.670;2022-12-18T11:54:55;46.00;;;27.73;;
44480;SDS011;30184;42.018;23.670;2022-12-18T11:57:31;48.03;;;29.13;;
44480;SDS011;30184;42.018;23.670;2022-12-18T12:00:10;59.60;;;32.97;;
44480;SDS011;30184;42.018;23.670;2022-12-18T12:05:55;73.60;;;44.38;;
44480;SDS011;30184;42.018;23.670;2022-12-18T12:08:37;48.38;;;28.02;;
44480;SDS011;30184;42.018;23.670;2022-12-18T12:11:22;50.45;;;30.58;;
44480;SDS011;30184;42.018;23.670;2022-12-18T12:14:02;61.50;;;35.63;;
44480;SDS011;30184;42.018;23.670;2022-12-18T12:16:43;59.63;;;35.50;;
44480;SDS011;30184;42.018;23.670;2022-12-18T12:19:21;87.97;;;44.25;;
44480;SDS011;30184;42.018;23.670;2022-12-18T12:22:03;71.57;;;38.05;;
44480;SDS011;30184;42.018;23.670;2022-12-18T12:24:45;73.40;;;39.65;;
44480;SDS011;30184;42.018;23.670;2022-12-18T12:27:26;60.53;;;32.25;;
44480;SDS011;30184;42.018;23.670;2022-12-18T12:30:07;80.75;;;47.80;;
44480;SDS011;30184;42.018;23.670;2022-12-18T12:32:44;41.60;;;24.15;;
44480;SDS011;30184;42.018;23.670;2022-12-18T12:35:25;65.18;;;41.13;;
44480;SDS011;30184;42.018;23.670;2022-12-18T12:38:05;40.22;;;23.85;;
44480;SDS011;30184;42.018;23.670;2022-12-18T12:40:42;41.33;;;25.48;;
44480;SDS011;30184;42.018;23.670;2022-12-18T12:43:21;300.67;;;166.15;;
44480;SDS011;30184;42.018;23.670;2022-12-18T12:45:53;47.65;;;24.35;;
44480;SDS011;30184;42.018;23.670;2022-12-18T12:48:30;68.45;;;39.72;;
44480;SDS011;30184;42.018;23.670;2022-12-18T12:51:12;51.13;;;28.15;;
44480;SDS011;30184;42.018;23.670;2022-12-18T12:53:45;102.00;;;51.30;;
44480;SDS011;30184;42.018;23.670;2022-12-18T12:56:17;82.95;;;44.15;;
44480;SDS011;30184;42.018;23.670;2022-12-18T12:58:53;226.10;;;130.23;;
44480;SDS011;30184;42.018;23.670;2022-12-18T13:01:33;267.08;;;135.15;;
44480;SDS011;30184;42.018;23.670;2022-12-18T13:04:12;87.20;;;50.33;;
44480;SDS011;30184;42.018;23.670;2022-12-18T13:06:50;137.80;;;81.07;;
44480;SDS011;30184;42.018;23.670;2022-12-18T13:09:29;132.38;;;74.40;;
44480;SDS011;30184;42.018;23.670;2022-12-18T13:12:03;126.47;;;65.95;;
44480;SDS011;30184;42.018;23.670;2022-12-18T13:14:49;120.65;;;68.53;;
44480;SDS011;30184;42.018;23.670;2022-12-18T13:17:24;100.85;;;58.30;;
44480;SDS011;30184;42.018;23.670;2022-12-18T13:20:08;105.72;;;55.42;;
44480;SDS011;30184;42.018;23.670;2022-12-18T13:22:40;138.82;;;79.55;;
44480;SDS011;30184;42.018;23.670;2022-12-18T13:25:28;131.80;;;76.80;;
44480;SDS011;30184;42.018;23.670;2022-12-18T13:28:05;107.25;;;62.83;;
44480;SDS011;30184;42.018;23.670;2022-12-18T13:30:47;126.55;;;76.05;;
44480;SDS011;30184;42.018;23.670;2022-12-18T13:36:37;126.97;;;74.70;;
44480;SDS011;30184;42.018;23.670;2022-12-18T13:39:10;121.22;;;69.97;;
44480;SDS011;30184;42.018;23.670;2022-12-18T13:45:04;144.43;;;79.30;;
44480;SDS011;30184;42.018;23.670;2022-12-18T13:48:20;121.68;;;70.07;;
44480;SDS011;30184;42.018;23.670;2022-12-18T13:50:52;114.85;;;68.57;;
44480;SDS011;30184;42.018;23.670;2022-12-18T13:53:28;130.82;;;74.20;;
44480;SDS011;30184;42.018;23.670;2022-12-18T13:56:02;134.27;;;75.68;;
44480;SDS011;30184;42.018;23.670;2022-12-18T13:58:32;184.48;;;105.72;;
44480;SDS011;30184;42.018;23.670;2022-12-18T14:01:01;129.90;;;73.90;;
44480;SDS011;30184;42.018;23.670;2022-12-18T14:03:33;116.47;;;63.00;;
44480;SDS011;30184;42.018;23.670;2022-12-18T14:06:03;107.22;;;55.65;;
44480;SDS011;30184;42.018;23.670;2022-12-18T14:08:37;105.72;;;60.08;;
44480;SDS011;30184;42.018;23.670;2022-12-18T14:11:11;126.15;;;73.07;;
44480;SDS011;30184;42.018;23.670;2022-12-18T14:13:49;259.05;;;166.70;;
44480;SDS011;30184;42.018;23.670;2022-12-18T14:16:20;164.05;;;105.22;;
44480;SDS011;30184;42.018;23.670;2022-12-18T14:18:53;120.55;;;68.10;;
44480;SDS011;30184;42.018;23.670;2022-12-18T14:21:25;132.40;;;76.50;;
44480;SDS011;30184;42.018;23.670;2022-12-18T14:24:11;233.70;;;105.03;;
44480;SDS011;30184;42.018;23.670;2022-12-18T14:26:42;175.77;;;94.28;;
44480;SDS011;30184;42.018;23.670;2022-12-18T14:29:21;282.38;;;132.27;;
44480;SDS011;30184;42.018;23.670;2022-12-18T14:32:05;186.18;;;92.40;;
44480;SDS011;30184;42.018;23.670;2022-12-18T14:34:41;96.65;;;53.95;;
44480;SDS011;30184;42.018;23.670;2022-12-18T14:37:10;145.30;;;82.90;;
44480;SDS011;30184;42.018;23.670;2022-12-18T14:39:51;149.63;;;84.90;;
44480;SDS011;30184;42.018;23.670;2022-12-18T14:42:21;170.50;;;90.57;;
44480;SDS011;30184;42.018;23.670;2022-12-18T14:44:50;215.18;;;102.50;;
44480;SDS011;30184;42.018;23.670;2022-12-18T14:47:42;168.02;;;89.03;;
44480;SDS011;30184;42.018;23.670;2022-12-18T14:50:13;331.50;;;182.82;;
44480;SDS011;30184;42.018;23.670;2022-12-18T14:52:43;168.75;;;94.45;;